sensor_id;sensor_type;location;lat;lon;timestamp;temperature;humidity
33699;DHT22;20032;52.436;13.312;2023-11-19T00:00:50;4.80;99.90
33699;DHT22;20032;52.436;13.312;2023-11-19T00:03:16;4.90;99.90
33699;DHT22;20032;52.436;13.312;2023-11-19T00:05:42;4.90;99.90
33699;DHT22;20032;52.436;13.312;2023-11-19T00:08:07;4.90;99.90
33699;DHT22;20032;52.436;13.312;2023-11-19T00:10:34;4.90;99.90
33699;DHT22;20032;52.436;13.312;2023-11-19T00:12:59;4.90;99.90
33699;DHT22;20032;52.436;13.312;2023-11-19T00:15:24;5.00;99.90
33699;DHT22;20032;52.436;13.312;2023-11-19T00:17:50;5.00;99.90
33699;DHT22;20032;52.436;13.312;2023-11-19T00:20:17;5.00;99.90
33699;DHT22;20032;52.436;13.312;2023-11-19T00:22:43;5.10;99.90
33699;DHT22;20032;52.436;13.312;2023-11-19T00:25:09;5.00;99.90
33699;DHT22;20032;52.436;13.312;2023-11-19T00:27:35;5.00;99.90
33699;DHT22;20032;52.436;13.312;2023-11-19T00:30:01;5.00;99.90
33699;DHT22;20032;52.436;13.312;2023-11-19T00:32:26;5.10;99.90
33699;DHT22;20032;52.436;13.312;2023-11-19T00:34:52;5.10;99.90
33699;DHT22;20032;52.436;13.312;2023-11-19T00:37:17;5.20;99.90
33699;DHT22;20032;52.436;13.312;2023-11-19T00:39:43;5.20;99.90
33699;DHT22;20032;52.436;13.312;2023-11-19T00:42:09;5.30;99.90
33699;DHT22;20032;52.436;13.312;2023-11-19T00:44:35;5.20;99.90
33699;DHT22;20032;52.436;13.312;2023-11-19T00:47:01;5.20;99.90
33699;DHT22;20032;52.436;13.312;2023-11-19T00:49:27;5.20;99.90
33699;DHT22;20032;52.436;13.312;2023-11-19T00:51:52;5.20;99.90
33699;DHT22;20032;52.436;13.312;2023-11-19T00:54:18;5.20;99.90
33699;DHT22;20032;52.436;13.312;2023-11-19T00:56:43;5.10;99.90
33699;DHT22;20032;52.436;13.312;2023-11-19T00:59:10;5.10;99.90
33699;DHT22;20032;52.436;13.312;2023-11-19T01:01:35;5.10;99.90
33699;DHT22;20032;52.436;13.312;2023-11-19T01:04:01;5.10;99.90
33699;DHT22;20032;52.436;13.312;2023-11-19T01:06:29;5.10;99.90
33699;DHT22;20032;52.436;13.312;2023-11-19T01:08:55;5.10;99.90
33699;DHT22;20032;52.436;13.312;2023-11-19T01:11:22;5.00;99.90
33699;DHT22;20032;52.436;13.312;2023-11-19T01:13:48;5.00;99.90
33699;DHT22;20032;52.436;13.312;2023-11-19T01:16:13;5.10;99.90
33699;DHT22;20032;52.436;13.312;2023-11-19T01:18:39;5.10;99.90
33699;DHT22;20032;52.436;13.312;2023-11-19T01:21:05;5.10;99.90
33699;DHT22;20032;52.436;13.312;2023-11-19T01:23:30;5.10;99.90
33699;DHT22;20032;52.436;13.312;2023-11-19T01:25:56;5.20;99.90
33699;DHT22;20032;52.436;13.312;2023-11-19T01:28:21;5.20;99.90
33699;DHT22;20032;52.436;13.312;2023-11-19T01:30:47;5.20;99.90
33699;DHT22;20032;52.436;13.312;2023-11-19T01:33:15;5.10;99.90
33699;DHT22;20032;52.436;13.312;2023-11-19T01:35:41;5.10;99.90
33699;DHT22;20032;52.436;13.312;2023-11-19T01:38:06;5.20;99.90
33699;DHT22;20032;52.436;13.312;2023-11-19T01:40:34;5.20;99.90
33699;DHT22;20032;52.436;13.312;2023-11-19T01:42:59;5.20;99.90
33699;DHT22;20032;52.436;13.312;2023-11-19T01:45:28;5.10;99.90
33699;DHT22;20032;52.436;13.312;2023-11-19T01:47:59;5.10;99.90
33699;DHT22;20032;52.436;13.312;2023-11-19T01:50:25;5.20;99.90
33699;DHT22;20032;52.436;13.312;2023-11-19T01:52:53;5.20;99.90
33699;DHT22;20032;52.436;13.312;2023-11-19T01:55:20;5.20;99.90
33699;DHT22;20032;52.436;13.312;2023-11-19T01:57:47;5.10;99.90
33699;DHT22;20032;52.436;13.312;2023-11-19T02:00:13;5.20;99.90
33699;DHT22;20032;52.436;13.312;2023-11-19T02:02:40;5.20;99.90
33699;DHT22;20032;52.436;13.312;2023-11-19T02:05:06;5.20;99.90
33699;DHT22;20032;52.436;13.312;2023-11-19T02:07:32;5.20;99.90
33699;DHT22;20032;52.436;13.312;2023-11-19T02:09:57;5.20;99.90
33699;DHT22;20032;52.436;13.312;2023-11-19T02:12:26;5.20;99.90
33699;DHT22;20032;52.436;13.312;2023-11-19T02:14:53;5.20;99.90
33699;DHT22;20032;52.436;13.312;2023-11-19T02:17:34;5.20;99.90
33699;DHT22;20032;52.436;13.312;2023-11-19T02:20:00;5.30;99.90
33699;DHT22;20032;52.436;13.312;2023-11-19T02:22:26;5.20;99.90
33699;DHT22;20032;52.436;13.312;2023-11-19T02:24:56;5.20;99.90
33699;DHT22;20032;52.436;13.312;2023-11-19T02:27:36;5.20;99.90
33699;DHT22;20032;52.436;13.312;2023-11-19T02:30:01;5.20;99.90
33699;DHT22;20032;52.436;13.312;2023-11-19T02:32:29;5.20;99.90
33699;DHT22;20032;52.436;13.312;2023-11-19T02:34:56;5.20;99.90
33699;DHT22;20032;52.436;13.312;2023-11-19T02:37:21;5.30;99.90
33699;DHT22;20032;52.436;13.312;2023-11-19T02:39:46;5.40;99.90
33699;DHT22;20032;52.436;13.312;2023-11-19T02:42:12;5.40;99.90
33699;DHT22;20032;52.436;13.312;2023-11-19T02:44:38;5.40;99.90
33699;DHT22;20032;52.436;13.312;2023-11-19T02:47:05;5.30;99.90
33699;DHT22;20032;52.436;13.312;2023-11-19T02:49:33;5.30;99.90
33699;DHT22;20032;52.436;13.312;2023-11-19T02:51:58;5.30;99.90
33699;DHT22;20032;52.436;13.312;2023-11-19T02:54:24;5.40;99.90
33699;DHT22;20032;52.436;13.312;2023-11-19T02:56:52;5.30;99.90
33699;DHT22;20032;52.436;13.312;2023-11-19T02:59:21;5.30;99.90
33699;DHT22;20032;52.436;13.312;2023-11-19T03:01:53;5.30;99.90
33699;DHT22;20032;52.436;13.312;2023-11-19T03:04:20;5.30;99.90
33699;DHT22;20032;52.436;13.312;2023-11-19T03:06:46;5.30;99.90
33699;DHT22;20032;52.436;13.312;2023-11-19T03:09:12;5.30;99.90
33699;DHT22;20032;52.436;13.312;2023-11-19T03:11:37;5.30;99.90
33699;DHT22;20032;52.436;13.312;2023-11-19T03:14:03;5.20;99.90
33699;DHT22;20032;52.436;13.312;2023-11-19T03:16:29;5.30;99.90
33699;DHT22;20032;52.436;13.312;2023-11-19T03:18:55;5.30;99.90
33699;DHT22;20032;52.436;13.312;2023-11-19T03:21:28;5.30;99.90
33699;DHT22;20032;52.436;13.312;2023-11-19T03:23:54;5.40;99.90
33699;DHT22;20032;52.436;13.312;2023-11-19T03:26:20;5.40;99.90
33699;DHT22;20032;52.436;13.312;2023-11-19T03:28:46;5.30;99.90
33699;DHT22;20032;52.436;13.312;2023-11-19T03:31:11;5.30;99.90
33699;DHT22;20032;52.436;13.312;2023-11-19T03:33:37;5.30;99.90
33699;DHT22;20032;52.436;13.312;2023-11-19T03:36:03;5.20;99.90
33699;DHT22;20032;52.436;13.312;2023-11-19T03:38:28;5.10;99.90
33699;DHT22;20032;52.436;13.312;2023-11-19T03:40:54;5.10;99.90
33699;DHT22;20032;52.436;13.312;2023-11-19T03:43:19;5.00;99.90
33699;DHT22;20032;52.436;13.312;2023-11-19T03:45:44;5.00;99.90
33699;DHT22;20032;52.436;13.312;2023-11-19T03:48:10;5.00;99.90
33699;DHT22;20032;52.436;13.312;2023-11-19T03:50:35;5.00;99.90
33699;DHT22;20032;52.436;13.312;2023-11-19T03:53:01;5.00;99.90
33699;DHT22;20032;52.436;13.312;2023-11-19T03:55:28;4.90;99.90
33699;DHT22;20032;52.436;13.312;2023-11-19T03:57:54;4.90;99.90
33699;DHT22;20032;52.436;13.312;2023-11-19T04:00:20;4.90;99.90
33699;DHT22;20032;52.436;13.312;2023-11-19T04:02:46;4.90;99.90
33699;DHT22;20032;52.436;13.312;2023-11-19T04:05:12;5.00;99.90
33699;DHT22;20032;52.436;13.312;2023-11-19T04:07:37;5.10;99.90
33699;DHT22;20032;52.436;13.312;2023-11-19T04:10:03;5.00;99.90
33699;DHT22;20032;52.436;13.312;2023-11-19T04:12:29;5.00;99.90
33699;DHT22;20032;52.436;13.312;2023-11-19T04:14:54;4.90;99.90
33699;DHT22;20032;52.436;13.312;2023-11-19T04:17:21;4.90;99.90
33699;DHT22;20032;52.436;13.312;2023-11-19T04:19:48;5.00;99.90
33699;DHT22;20032;52.436;13.312;2023-11-19T04:22:14;4.90;99.90
33699;DHT22;20032;52.436;13.312;2023-11-19T04:24:39;5.00;99.90
33699;DHT22;20032;52.436;13.312;2023-11-19T04:27:06;5.00;99.90
33699;DHT22;20032;52.436;13.312;2023-11-19T04:29:31;5.00;99.90
33699;DHT22;20032;52.436;13.312;2023-11-19T04:31:57;5.00;99.90
33699;DHT22;20032;52.436;13.312;2023-11-19T04:34:23;4.90;99.90
33699;DHT22;20032;52.436;13.312;2023-11-19T04:36:49;4.90;99.90
33699;DHT22;20032;52.436;13.312;2023-11-19T04:39:14;4.90;99.90
33699;DHT22;20032;52.436;13.312;2023-11-19T04:41:49;4.90;99.90
33699;DHT22;20032;52.436;13.312;2023-11-19T04:44:16;4.80;99.90
33699;DHT22;20032;52.436;13.312;2023-11-19T04:46:42;4.90;99.90
33699;DHT22;20032;52.436;13.312;2023-11-19T04:49:10;4.90;99.90
33699;DHT22;20032;52.436;13.312;2023-11-19T04:51:41;4.90;99.90
33699;DHT22;20032;52.436;13.312;2023-11-19T04:54:07;5.00;99.90
33699;DHT22;20032;52.436;13.312;2023-11-19T04:56:34;5.00;99.90
33699;DHT22;20032;52.436;13.312;2023-11-19T04:59:00;5.00;99.90
33699;DHT22;20032;52.436;13.312;2023-11-19T05:01:25;5.00;99.90
33699;DHT22;20032;52.436;13.312;2023-11-19T05:03:51;5.00;99.90
33699;DHT22;20032;52.436;13.312;2023-11-19T05:06:16;5.00;99.90
33699;DHT22;20032;52.436;13.312;2023-11-19T05:08:42;4.90;99.90
33699;DHT22;20032;52.436;13.312;2023-11-19T05:11:07;4.90;99.90
33699;DHT22;20032;52.436;13.312;2023-11-19T05:13:33;4.90;99.90
33699;DHT22;20032;52.436;13.312;2023-11-19T05:15:58;4.90;99.90
33699;DHT22;20032;52.436;13.312;2023-11-19T05:18:24;4.90;99.90
33699;DHT22;20032;52.436;13.312;2023-11-19T05:20:49;4.90;99.90
33699;DHT22;20032;52.436;13.312;2023-11-19T05:23:15;5.00;99.90
33699;DHT22;20032;52.436;13.312;2023-11-19T05:25:40;4.90;99.90
33699;DHT22;20032;52.436;13.312;2023-11-19T05:28:05;4.80;99.90
33699;DHT22;20032;52.436;13.312;2023-11-19T05:30:31;4.80;99.90
33699;DHT22;20032;52.436;13.312;2023-11-19T05:32:56;4.80;99.90
33699;DHT22;20032;52.436;13.312;2023-11-19T05:35:22;4.80;99.90
33699;DHT22;20032;52.436;13.312;2023-11-19T05:37:47;4.80;99.90
33699;DHT22;20032;52.436;13.312;2023-11-19T05:40:13;4.80;99.90
33699;DHT22;20032;52.436;13.312;2023-11-19T05:42:40;4.90;99.90
33699;DHT22;20032;52.436;13.312;2023-11-19T05:45:06;4.90;99.90
33699;DHT22;20032;52.436;13.312;2023-11-19T05:47:33;4.90;99.90
33699;DHT22;20032;52.436;13.312;2023-11-19T05:49:58;5.00;99.90
33699;DHT22;20032;52.436;13.312;2023-11-19T05:52:24;5.00;99.90
33699;DHT22;20032;52.436;13.312;2023-11-19T05:54:49;5.00;99.90
33699;DHT22;20032;52.436;13.312;2023-11-19T05:57:17;5.00;99.90
33699;DHT22;20032;52.436;13.312;2023-11-19T05:59:49;5.00;99.90
33699;DHT22;20032;52.436;13.312;2023-11-19T06:02:15;5.00;99.90
33699;DHT22;20032;52.436;13.312;2023-11-19T06:04:40;5.00;99.90
33699;DHT22;20032;52.436;13.312;2023-11-19T06:07:06;5.00;99.90
33699;DHT22;20032;52.436;13.312;2023-11-19T06:09:32;5.00;99.90
33699;DHT22;20032;52.436;13.312;2023-11-19T06:11:59;5.00;99.90
33699;DHT22;20032;52.436;13.312;2023-11-19T06:14:27;5.00;99.90
33699;DHT22;20032;52.436;13.312;2023-11-19T06:16:52;4.90;99.90
33699;DHT22;20032;52.436;13.312;2023-11-19T06:19:18;4.90;99.90
33699;DHT22;20032;52.436;13.312;2023-11-19T06:21:43;5.00;99.90
33699;DHT22;20032;52.436;13.312;2023-11-19T06:24:09;4.90;99.90
33699;DHT22;20032;52.436;13.312;2023-11-19T06:26:34;4.90;99.90
33699;DHT22;20032;52.436;13.312;2023-11-19T06:29:00;5.00;99.90
33699;DHT22;20032;52.436;13.312;2023-11-19T06:31:25;5.00;99.90
33699;DHT22;20032;52.436;13.312;2023-11-19T06:33:51;5.00;99.90
33699;DHT22;20032;52.436;13.312;2023-11-19T06:36:16;5.00;99.90
33699;DHT22;20032;52.436;13.312;2023-11-19T06:38:43;5.00;99.90
33699;DHT22;20032;52.436;13.312;2023-11-19T06:41:08;5.10;99.90
33699;DHT22;20032;52.436;13.312;2023-11-19T06:43:35;5.10;99.90
33699;DHT22;20032;52.436;13.312;2023-11-19T06:46:01;5.10;99.90
33699;DHT22;20032;52.436;13.312;2023-11-19T06:48:27;5.10;99.90
33699;DHT22;20032;52.436;13.312;2023-11-19T06:50:52;5.20;99.90
33699;DHT22;20032;52.436;13.312;2023-11-19T06:53:17;5.20;99.90
33699;DHT22;20032;52.436;13.312;2023-11-19T06:55:43;5.20;99.90
33699;DHT22;20032;52.436;13.312;2023-11-19T06:58:08;5.20;99.90
33699;DHT22;20032;52.436;13.312;2023-11-19T07:00:34;5.20;99.90
33699;DHT22;20032;52.436;13.312;2023-11-19T07:03:01;5.20;99.90
33699;DHT22;20032;52.436;13.312;2023-11-19T07:05:26;5.20;99.90
33699;DHT22;20032;52.436;13.312;2023-11-19T07:07:53;5.20;99.90
33699;DHT22;20032;52.436;13.312;2023-11-19T07:10:19;5.30;99.90
33699;DHT22;20032;52.436;13.312;2023-11-19T07:12:45;5.30;99.90
33699;DHT22;20032;52.436;13.312;2023-11-19T07:15:10;5.40;99.90
33699;DHT22;20032;52.436;13.312;2023-11-19T07:17:38;5.30;99.90
33699;DHT22;20032;52.436;13.312;2023-11-19T07:20:05;5.30;99.90
33699;DHT22;20032;52.436;13.312;2023-11-19T07:22:31;5.40;99.90
33699;DHT22;20032;52.436;13.312;2023-11-19T07:24:56;5.40;99.90
33699;DHT22;20032;52.436;13.312;2023-11-19T07:27:22;5.50;99.90
33699;DHT22;20032;52.436;13.312;2023-11-19T07:29:49;5.50;99.90
33699;DHT22;20032;52.436;13.312;2023-11-19T07:32:14;5.50;99.90
33699;DHT22;20032;52.436;13.312;2023-11-19T07:34:40;5.50;99.90
33699;DHT22;20032;52.436;13.312;2023-11-19T07:37:05;5.60;99.90
33699;DHT22;20032;52.436;13.312;2023-11-19T07:39:31;5.60;99.90
33699;DHT22;20032;52.436;13.312;2023-11-19T07:41:57;5.70;99.90
33699;DHT22;20032;52.436;13.312;2023-11-19T07:44:22;5.70;99.90
33699;DHT22;20032;52.436;13.312;2023-11-19T07:46:48;5.70;99.90
33699;DHT22;20032;52.436;13.312;2023-11-19T07:49:13;5.70;99.90
33699;DHT22;20032;52.436;13.312;2023-11-19T07:51:39;5.80;99.90
33699;DHT22;20032;52.436;13.312;2023-11-19T07:54:05;5.90;99.90
33699;DHT22;20032;52.436;13.312;2023-11-19T07:56:31;5.90;99.90
33699;DHT22;20032;52.436;13.312;2023-11-19T07:58:57;5.90;99.90
33699;DHT22;20032;52.436;13.312;2023-11-19T08:01:22;5.90;99.90
33699;DHT22;20032;52.436;13.312;2023-11-19T08:03:49;5.80;99.90
33699;DHT22;20032;52.436;13.312;2023-11-19T08:06:14;5.90;99.90
33699;DHT22;20032;52.436;13.312;2023-11-19T08:08:40;6.00;99.90
33699;DHT22;20032;52.436;13.312;2023-11-19T08:11:05;6.00;99.90
33699;DHT22;20032;52.436;13.312;2023-11-19T08:13:31;6.10;99.90
33699;DHT22;20032;52.436;13.312;2023-11-19T08:15:57;6.20;99.90
33699;DHT22;20032;52.436;13.312;2023-11-19T08:18:23;6.20;99.90
33699;DHT22;20032;52.436;13.312;2023-11-19T08:20:49;6.20;99.90
33699;DHT22;20032;52.436;13.312;2023-11-19T08:23:18;6.20;99.90
33699;DHT22;20032;52.436;13.312;2023-11-19T08:25:43;6.30;99.90
33699;DHT22;20032;52.436;13.312;2023-11-19T08:28:09;6.40;99.90
33699;DHT22;20032;52.436;13.312;2023-11-19T08:30:35;6.40;99.90
33699;DHT22;20032;52.436;13.312;2023-11-19T08:33:00;6.50;99.90
33699;DHT22;20032;52.436;13.312;2023-11-19T08:35:28;6.60;99.90
33699;DHT22;20032;52.436;13.312;2023-11-19T08:37:54;6.60;99.90
33699;DHT22;20032;52.436;13.312;2023-11-19T08:40:19;6.60;99.90
33699;DHT22;20032;52.436;13.312;2023-11-19T08:42:45;6.70;99.90
33699;DHT22;20032;52.436;13.312;2023-11-19T08:45:11;6.80;99.90
33699;DHT22;20032;52.436;13.312;2023-11-19T08:47:37;6.90;99.90
33699;DHT22;20032;52.436;13.312;2023-11-19T08:50:03;7.00;99.90
33699;DHT22;20032;52.436;13.312;2023-11-19T08:52:30;7.00;99.90
33699;DHT22;20032;52.436;13.312;2023-11-19T08:54:55;7.10;99.90
33699;DHT22;20032;52.436;13.312;2023-11-19T08:57:21;7.20;99.90
33699;DHT22;20032;52.436;13.312;2023-11-19T08:59:46;7.30;99.90
33699;DHT22;20032;52.436;13.312;2023-11-19T09:02:12;7.30;99.90
33699;DHT22;20032;52.436;13.312;2023-11-19T09:04:37;7.40;99.90
33699;DHT22;20032;52.436;13.312;2023-11-19T09:07:03;7.40;99.90
33699;DHT22;20032;52.436;13.312;2023-11-19T09:09:29;7.40;99.90
33699;DHT22;20032;52.436;13.312;2023-11-19T09:11:55;7.50;99.90
33699;DHT22;20032;52.436;13.312;2023-11-19T09:14:20;7.60;99.90
33699;DHT22;20032;52.436;13.312;2023-11-19T09:16:51;7.60;99.90
33699;DHT22;20032;52.436;13.312;2023-11-19T09:19:16;7.70;99.90
33699;DHT22;20032;52.436;13.312;2023-11-19T09:21:42;7.70;99.90
33699;DHT22;20032;52.436;13.312;2023-11-19T09:24:08;7.80;99.90
33699;DHT22;20032;52.436;13.312;2023-11-19T09:26:33;7.90;99.90
33699;DHT22;20032;52.436;13.312;2023-11-19T09:29:01;8.10;99.90
33699;DHT22;20032;52.436;13.312;2023-11-19T09:31:26;8.20;99.90
33699;DHT22;20032;52.436;13.312;2023-11-19T09:33:52;8.30;99.90
33699;DHT22;20032;52.436;13.312;2023-11-19T09:36:17;8.50;99.90
33699;DHT22;20032;52.436;13.312;2023-11-19T09:38:44;8.60;99.90
33699;DHT22;20032;52.436;13.312;2023-11-19T09:41:10;8.80;99.90
33699;DHT22;20032;52.436;13.312;2023-11-19T09:43:40;8.90;99.90
33699;DHT22;20032;52.436;13.312;2023-11-19T09:46:08;9.00;99.90
33699;DHT22;20032;52.436;13.312;2023-11-19T09:48:37;9.00;99.90
33699;DHT22;20032;52.436;13.312;2023-11-19T09:51:04;9.10;99.90
33699;DHT22;20032;52.436;13.312;2023-11-19T09:53:30;9.10;99.90
33699;DHT22;20032;52.436;13.312;2023-11-19T09:55:56;9.20;99.90
33699;DHT22;20032;52.436;13.312;2023-11-19T09:58:22;9.30;99.90
33699;DHT22;20032;52.436;13.312;2023-11-19T10:00:49;9.40;99.90
33699;DHT22;20032;52.436;13.312;2023-11-19T10:03:15;9.40;99.90
33699;DHT22;20032;52.436;13.312;2023-11-19T10:05:40;9.50;99.90
33699;DHT22;20032;52.436;13.312;2023-11-19T10:08:06;9.50;99.90
33699;DHT22;20032;52.436;13.312;2023-11-19T10:10:33;9.60;99.90
33699;DHT22;20032;52.436;13.312;2023-11-19T10:12:59;9.60;99.90
33699;DHT22;20032;52.436;13.312;2023-11-19T10:15:26;9.60;99.90
33699;DHT22;20032;52.436;13.312;2023-11-19T10:17:54;9.70;99.90
33699;DHT22;20032;52.436;13.312;2023-11-19T10:20:20;9.80;99.90
33699;DHT22;20032;52.436;13.312;2023-11-19T10:22:46;9.80;99.90
33699;DHT22;20032;52.436;13.312;2023-11-19T10:25:27;9.90;99.90
33699;DHT22;20032;52.436;13.312;2023-11-19T10:27:54;9.90;99.90
33699;DHT22;20032;52.436;13.312;2023-11-19T10:30:23;10.00;99.90
33699;DHT22;20032;52.436;13.312;2023-11-19T10:33:08;10.10;99.90
33699;DHT22;20032;52.436;13.312;2023-11-19T10:35:36;10.10;99.90
33699;DHT22;20032;52.436;13.312;2023-11-19T10:38:14;10.10;99.90
33699;DHT22;20032;52.436;13.312;2023-11-19T10:40:40;10.20;99.90
33699;DHT22;20032;52.436;13.312;2023-11-19T10:43:06;10.30;99.90
33699;DHT22;20032;52.436;13.312;2023-11-19T10:45:34;10.30;99.90
33699;DHT22;20032;52.436;13.312;2023-11-19T10:47:59;10.40;99.90
33699;DHT22;20032;52.436;13.312;2023-11-19T10:50:26;10.50;99.90
33699;DHT22;20032;52.436;13.312;2023-11-19T10:52:56;10.60;99.90
33699;DHT22;20032;52.436;13.312;2023-11-19T10:55:27;10.70;99.90
33699;DHT22;20032;52.436;13.312;2023-11-19T10:57:58;10.70;99.90
33699;DHT22;20032;52.436;13.312;2023-11-19T11:00:24;10.80;99.90
33699;DHT22;20032;52.436;13.312;2023-11-19T11:02:55;10.80;99.90
33699;DHT22;20032;52.436;13.312;2023-11-19T11:05:22;10.90;99.90
33699;DHT22;20032;52.436;13.312;2023-11-19T11:07:49;11.00;99.90
33699;DHT22;20032;52.436;13.312;2023-11-19T11:10:16;11.00;99.90
33699;DHT22;20032;52.436;13.312;2023-11-19T11:12:43;11.00;99.90
33699;DHT22;20032;52.436;13.312;2023-11-19T11:15:11;11.00;99.90
33699;DHT22;20032;52.436;13.312;2023-11-19T11:17:39;11.10;99.90
33699;DHT22;20032;52.436;13.312;2023-11-19T11:20:05;11.00;99.90
33699;DHT22;20032;52.436;13.312;2023-11-19T11:22:50;11.00;99.90
33699;DHT22;20032;52.436;13.312;2023-11-19T11:25:31;11.00;99.90
33699;DHT22;20032;52.436;13.312;2023-11-19T11:28:12;11.00;99.90
33699;DHT22;20032;52.436;13.312;2023-11-19T11:30:51;11.00;99.90
33699;DHT22;20032;52.436;13.312;2023-11-19T11:33:32;11.10;99.90
33699;DHT22;20032;52.436;13.312;2023-11-19T11:36:07;11.10;99.90
33699;DHT22;20032;52.436;13.312;2023-11-19T11:38:37;11.20;99.90
33699;DHT22;20032;52.436;13.312;2023-11-19T11:41:23;11.40;99.90
33699;DHT22;20032;52.436;13.312;2023-11-19T11:43:51;11.70;99.90
33699;DHT22;20032;52.436;13.312;2023-11-19T11:49:04;12.50;99.90
33699;DHT22;20032;52.436;13.312;2023-11-19T12:02:13;12.70;99.90
33699;DHT22;20032;52.436;13.312;2023-11-19T12:04:40;12.50;99.90
33699;DHT22;20032;52.436;13.312;2023-11-19T12:07:08;12.40;99.90
33699;DHT22;20032;52.436;13.312;2023-11-19T12:09:40;12.20;99.90
33699;DHT22;20032;52.436;13.312;2023-11-19T12:20:04;12.00;99.90
33699;DHT22;20032;52.436;13.312;2023-11-19T12:22:31;11.90;99.90
33699;DHT22;20032;52.436;13.312;2023-11-19T12:24:56;11.90;99.90
33699;DHT22;20032;52.436;13.312;2023-11-19T12:27:22;11.90;99.90
33699;DHT22;20032;52.436;13.312;2023-11-19T12:29:48;11.90;99.90
33699;DHT22;20032;52.436;13.312;2023-11-19T12:32:14;11.90;99.90
33699;DHT22;20032;52.436;13.312;2023-11-19T12:34:39;11.90;99.90
33699;DHT22;20032;52.436;13.312;2023-11-19T12:37:05;11.90;99.90
33699;DHT22;20032;52.436;13.312;2023-11-19T12:39:31;11.90;99.90
33699;DHT22;20032;52.436;13.312;2023-11-19T12:41:57;11.90;99.90
33699;DHT22;20032;52.436;13.312;2023-11-19T12:44:25;11.90;99.90
33699;DHT22;20032;52.436;13.312;2023-11-19T12:47:10;12.00;99.90
33699;DHT22;20032;52.436;13.312;2023-11-19T12:49:36;12.00;99.90
33699;DHT22;20032;52.436;13.312;2023-11-19T12:52:10;12.00;99.90
33699;DHT22;20032;52.436;13.312;2023-11-19T12:54:36;11.90;99.90
33699;DHT22;20032;52.436;13.312;2023-11-19T12:57:03;11.90;99.90
33699;DHT22;20032;52.436;13.312;2023-11-19T12:59:30;11.90;99.90
33699;DHT22;20032;52.436;13.312;2023-11-19T13:01:58;11.90;99.90
33699;DHT22;20032;52.436;13.312;2023-11-19T13:04:27;11.90;99.90
33699;DHT22;20032;52.436;13.312;2023-11-19T13:06:52;11.90;99.90
33699;DHT22;20032;52.436;13.312;2023-11-19T13:09:22;11.90;99.90
33699;DHT22;20032;52.436;13.312;2023-11-19T13:11:49;11.90;99.90
33699;DHT22;20032;52.436;13.312;2023-11-19T13:14:14;11.80;99.90
33699;DHT22;20032;52.436;13.312;2023-11-19T13:16:40;11.70;99.90
33699;DHT22;20032;52.436;13.312;2023-11-19T13:19:05;11.70;99.90
33699;DHT22;20032;52.436;13.312;2023-11-19T13:21:31;11.70;99.90
33699;DHT22;20032;52.436;13.312;2023-11-19T13:23:57;11.70;99.90
33699;DHT22;20032;52.436;13.312;2023-11-19T13:26:22;11.80;99.90
33699;DHT22;20032;52.436;13.312;2023-11-19T13:28:48;11.80;99.90
33699;DHT22;20032;52.436;13.312;2023-11-19T13:31:14;11.80;99.90
33699;DHT22;20032;52.436;13.312;2023-11-19T13:33:39;11.80;99.90
33699;DHT22;20032;52.436;13.312;2023-11-19T13:36:06;11.90;99.90
33699;DHT22;20032;52.436;13.312;2023-11-19T13:38:33;11.90;99.90
33699;DHT22;20032;52.436;13.312;2023-11-19T13:41:00;11.80;99.90
33699;DHT22;20032;52.436;13.312;2023-11-19T13:43:26;11.80;99.90
33699;DHT22;20032;52.436;13.312;2023-11-19T13:45:54;11.70;99.90
33699;DHT22;20032;52.436;13.312;2023-11-19T13:48:19;11.70;99.90
33699;DHT22;20032;52.436;13.312;2023-11-19T13:50:45;11.70;99.90
33699;DHT22;20032;52.436;13.312;2023-11-19T13:53:10;11.60;99.90
33699;DHT22;20032;52.436;13.312;2023-11-19T13:55:36;11.60;99.90
33699;DHT22;20032;52.436;13.312;2023-11-19T13:58:01;11.50;99.90
33699;DHT22;20032;52.436;13.312;2023-11-19T14:00:27;11.40;99.90
33699;DHT22;20032;52.436;13.312;2023-11-19T14:02:52;11.50;99.90
33699;DHT22;20032;52.436;13.312;2023-11-19T14:05:18;11.50;99.90
33699;DHT22;20032;52.436;13.312;2023-11-19T14:07:44;11.50;99.90
33699;DHT22;20032;52.436;13.312;2023-11-19T14:10:10;11.40;99.90
33699;DHT22;20032;52.436;13.312;2023-11-19T14:12:36;11.40;99.90
33699;DHT22;20032;52.436;13.312;2023-11-19T14:15:03;11.40;99.90
33699;DHT22;20032;52.436;13.312;2023-11-19T14:17:31;11.40;99.90
33699;DHT22;20032;52.436;13.312;2023-11-19T14:19:56;11.40;99.90
33699;DHT22;20032;52.436;13.312;2023-11-19T14:22:22;11.40;99.90
33699;DHT22;20032;52.436;13.312;2023-11-19T14:24:47;11.40;99.90
33699;DHT22;20032;52.436;13.312;2023-11-19T14:27:13;11.40;99.90
33699;DHT22;20032;52.436;13.312;2023-11-19T14:29:38;11.40;99.90
33699;DHT22;20032;52.436;13.312;2023-11-19T14:32:05;11.40;99.90
33699;DHT22;20032;52.436;13.312;2023-11-19T14:34:31;11.40;99.90
33699;DHT22;20032;52.436;13.312;2023-11-19T14:36:57;11.40;99.90
33699;DHT22;20032;52.436;13.312;2023-11-19T14:39:23;11.40;99.90
33699;DHT22;20032;52.436;13.312;2023-11-19T14:41:49;11.40;99.90
33699;DHT22;20032;52.436;13.312;2023-11-19T14:44:16;11.40;99.90
33699;DHT22;20032;52.436;13.312;2023-11-19T14:46:41;11.40;99.90
33699;DHT22;20032;52.436;13.312;2023-11-19T14:49:07;11.40;99.90
33699;DHT22;20032;52.436;13.312;2023-11-19T14:51:35;11.30;99.90
33699;DHT22;20032;52.436;13.312;2023-11-19T14:54:01;11.30;99.90
33699;DHT22;20032;52.436;13.312;2023-11-19T14:56:27;11.30;99.90
33699;DHT22;20032;52.436;13.312;2023-11-19T14:58:52;11.20;99.90
33699;DHT22;20032;52.436;13.312;2023-11-19T15:01:18;11.20;99.90
33699;DHT22;20032;52.436;13.312;2023-11-19T15:03:44;11.20;99.90
33699;DHT22;20032;52.436;13.312;2023-11-19T15:06:10;11.10;99.90
33699;DHT22;20032;52.436;13.312;2023-11-19T15:08:36;11.10;99.90
33699;DHT22;20032;52.436;13.312;2023-11-19T15:11:02;11.10;99.90
33699;DHT22;20032;52.436;13.312;2023-11-19T15:13:30;11.00;99.90
33699;DHT22;20032;52.436;13.312;2023-11-19T15:15:55;10.90;99.90
33699;DHT22;20032;52.436;13.312;2023-11-19T15:18:22;10.90;99.90
33699;DHT22;20032;52.436;13.312;2023-11-19T15:20:47;10.90;99.90
33699;DHT22;20032;52.436;13.312;2023-11-19T15:23:13;10.80;99.90
33699;DHT22;20032;52.436;13.312;2023-11-19T15:25:39;10.80;99.90
33699;DHT22;20032;52.436;13.312;2023-11-19T15:28:04;10.80;99.90
33699;DHT22;20032;52.436;13.312;2023-11-19T15:30:30;10.80;99.90
33699;DHT22;20032;52.436;13.312;2023-11-19T15:32:55;10.80;99.90
33699;DHT22;20032;52.436;13.312;2023-11-19T15:35:21;10.70;99.90
33699;DHT22;20032;52.436;13.312;2023-11-19T15:37:46;10.80;99.90
33699;DHT22;20032;52.436;13.312;2023-11-19T15:40:12;10.80;99.90
33699;DHT22;20032;52.436;13.312;2023-11-19T15:42:38;10.80;99.90